Time;durP1;ratioP1;P1;durP2;ratioP2;P2;SDS_P1;SDS_P2;PMS_P1;PMS_P2;Temp;Humidity;BMP_temperature;BMP_pressure;BME280_temperature;BME280_humidity;BME280_pressure;Samples;Min_cycle;Max_cycle;Signal;HPM_P1;HPM_P2
2022/09/16 00:00:22;;;;;;;2.17;0.82;;;13.80;99.90;;;;;;5079934;28;20115;-60
2022/09/16 00:02:50;;;;;;;6.93;1.23;;;13.80;99.90;;;;;;5079595;28;20038;-59
2022/09/16 00:05:16;;;;;;;7.35;1.08;;;13.80;99.90;;;;;;5062060;28;20131;-61
2022/09/16 00:07:41;;;;;;;3.83;0.82;;;13.80;99.90;;;;;;5081547;28;20053;-61
2022/09/16 00:10:07;;;;;;;6.68;0.85;;;13.80;99.90;;;;;;5079829;28;20032;-61
2022/09/16 00:12:33;;;;;;;3.33;0.95;;;13.80;99.90;;;;;;5079458;28;20027;-61
2022/09/16 00:14:58;;;;;;;6.30;1.05;;;13.90;99.90;;;;;;5079199;28;20163;-60
2022/09/16 00:17:24;;;;;;;8.80;0.82;;;13.80;99.90;;;;;;5075470;28;20077;-61
2022/09/16 00:19:49;;;;;;;4.05;0.85;;;13.80;99.90;;;;;;5077739;28;20043;-60
2022/09/16 00:22:16;;;;;;;2.72;1.35;;;13.80;99.90;;;;;;5077481;28;20041;-61
2022/09/16 00:24:41;;;;;;;3.60;1.05;;;13.80;99.90;;;;;;5078451;28;20077;-61
2022/09/16 00:27:07;;;;;;;10.32;0.95;;;13.70;99.90;;;;;;5081304;28;20036;-60
2022/09/16 00:29:32;;;;;;;3.75;0.90;;;13.70;99.90;;;;;;5077857;28;20032;-61
2022/09/16 00:31:58;;;;;;;7.30;1.15;;;13.70;99.90;;;;;;5078964;28;20048;-60
2022/09/16 00:34:24;;;;;;;8.40;0.80;;;13.70;99.90;;;;;;5079624;28;20023;-61
2022/09/16 00:36:50;;;;;;;8.23;0.90;;;13.50;99.90;;;;;;5082209;28;20028;-60
2022/09/16 00:39:15;;;;;;;6.40;1.00;;;13.50;99.90;;;;;;5079935;28;20040;-61
2022/09/16 00:41:41;;;;;;;3.40;0.73;;;13.50;99.90;;;;;;5079553;28;20138;-61
2022/09/16 00:44:45;;;;;;;7.00;0.95;;;13.50;99.90;;;;;;5077389;28;20118;-60
2022/09/16 00:47:13;;;;;;;6.40;1.00;;;13.60;99.90;;;;;;5080435;28;20020;-60
2022/09/16 00:49:39;;;;;;;11.75;1.65;;;13.50;99.90;;;;;;5079777;28;20115;-59
2022/09/16 00:52:06;;;;;;;4.00;1.17;;;13.50;99.90;;;;;;5077935;28;20016;-61
2022/09/16 00:54:34;;;;;;;6.00;1.23;;;13.40;99.90;;;;;;5086500;28;20020;-61
2022/09/16 00:57:01;;;;;;;10.43;1.20;;;13.40;99.90;;;;;;5082642;28;20103;-60
2022/09/16 00:59:31;;;;;;;3.85;0.90;;;13.40;99.90;;;;;;5079510;28;20034;-61
2022/09/16 01:02:02;;;;;;;9.18;1.30;;;13.40;99.90;;;;;;5076423;28;20032;-58
2022/09/16 01:04:35;;;;;;;2.10;0.73;;;13.40;99.90;;;;;;5078800;28;20047;-61
2022/09/16 01:07:01;;;;;;;8.40;1.10;;;13.30;99.90;;;;;;5078476;28;20028;-60
2022/09/16 01:09:28;;;;;;;4.10;1.27;;;13.30;99.90;;;;;;5077129;28;20028;-61
2022/09/16 01:11:54;;;;;;;5.05;1.75;;;13.20;99.90;;;;;;5079376;28;20035;-61
2022/09/16 01:17:15;;;;;;;13.20;1.70;;;13.20;99.90;;;;;;5078654;28;20528;-61
2022/09/16 01:19:57;;;;;;;;;;;13.20;99.90;;;;;;5078364;28;20144;-61
2022/09/16 01:22:57;;;;;;;9.82;1.13;;;13.30;99.90;;;;;;5077742;28;19908;-60
2022/09/16 01:25:28;;;;;;;7.43;1.50;;;13.40;99.90;;;;;;5079116;28;20024;-61
2022/09/16 01:28:05;;;;;;;4.45;0.98;;;13.30;99.90;;;;;;5078606;28;20455;-61
2022/09/16 01:30:41;;;;;;;8.23;1.10;;;13.30;99.90;;;;;;5085556;28;20478;-60
2022/09/16 01:33:47;;;;;;;3.50;1.05;;;13.30;99.90;;;;;;5081057;28;20035;-59
2022/09/16 01:36:15;;;;;;;5.75;1.00;;;13.30;99.90;;;;;;5083318;28;20025;-61
2022/09/16 01:39:21;;;;;;;6.28;1.20;;;13.30;99.90;;;;;;5076925;28;20038;-61
2022/09/16 01:42:31;;;;;;;7.13;1.52;;;13.30;99.90;;;;;;5082840;28;20027;-61
2022/09/16 01:45:05;;;;;;;9.40;1.20;;;13.30;99.90;;;;;;5025807;28;20522;-61
2022/09/16 01:48:07;;;;;;;4.38;1.08;;;13.30;99.90;;;;;;5007558;28;20109;-61
2022/09/16 01:50:47;;;;;;;7.00;1.15;;;13.20;99.90;;;;;;5069110;28;20052;-60
2022/09/16 01:53:20;;;;;;;8.30;0.90;;;13.30;99.90;;;;;;5089784;28;20051;-61
2022/09/16 01:55:59;;;;;;;9.82;1.23;;;13.40;99.90;;;;;;5083995;28;20489;-60
2022/09/16 01:58:27;;;;;;;6.93;1.30;;;13.30;99.90;;;;;;5087868;28;20021;-60
2022/09/16 02:01:07;;;;;;;6.75;1.20;;;13.40;99.90;;;;;;5085813;28;20056;-60
2022/09/16 02:03:37;;;;;;;10.80;1.85;;;13.40;99.90;;;;;;5082974;28;20033;-61
2022/09/16 02:06:07;;;;;;;9.43;1.20;;;13.50;99.90;;;;;;5088982;28;20493;-61
2022/09/16 02:08:43;;;;;;;5.55;1.67;;;13.40;99.90;;;;;;5084797;28;20063;-59
2022/09/16 02:11:12;;;;;;;6.85;1.65;;;13.30;99.90;;;;;;5089714;28;20091;-60
2022/09/16 02:13:39;;;;;;;7.07;1.45;;;13.30;99.90;;;;;;5085420;28;20028;-61
2022/09/16 02:16:21;;;;;;;10.23;1.63;;;13.40;99.90;;;;;;5082639;28;20043;-60
2022/09/16 02:18:53;;;;;;;6.07;1.70;;;13.40;99.90;;;;;;5084021;28;20107;-61
2022/09/16 02:21:22;;;;;;;9.73;1.52;;;13.40;99.90;;;;;;5081772;28;20021;-60
2022/09/16 02:23:54;;;;;;;13.95;2.00;;;13.30;99.90;;;;;;5087087;28;20035;-60
2022/09/16 02:26:25;;;;;;;13.23;1.83;;;13.30;99.90;;;;;;5085830;28;20506;-61
2022/09/16 02:28:53;;;;;;;11.65;1.73;;;13.30;99.90;;;;;;5087398;28;20837;-60
2022/09/16 02:31:25;;;;;;;15.60;2.97;;;13.30;99.90;;;;;;5082367;28;20456;-61
2022/09/16 02:33:56;;;;;;;9.15;1.80;;;13.40;99.90;;;;;;5087002;28;20401;-60
2022/09/16 02:36:24;;;;;;;5.50;2.00;;;13.40;99.90;;;;;;5086246;28;20024;-60
2022/09/16 02:39:12;;;;;;;10.80;1.38;;;13.40;99.90;;;;;;5083442;28;20436;-59
2022/09/16 02:41:39;;;;;;;12.63;1.80;;;13.40;99.90;;;;;;5079441;28;20028;-61
2022/09/16 02:44:06;;;;;;;5.38;1.70;;;13.40;99.90;;;;;;5086629;28;20056;-59
2022/09/16 02:46:37;;;;;;;5.13;1.90;;;13.50;99.90;;;;;;5085198;28;20115;-61
2022/09/16 02:49:36;;;;;;;7.35;1.83;;;13.50;99.90;;;;;;5083851;28;20059;-61
2022/09/16 02:52:23;;;;;;;8.07;1.70;;;13.50;99.90;;;;;;5085417;28;20024;-61
2022/09/16 02:54:58;;;;;;;9.73;2.00;;;13.50;99.90;;;;;;5085300;28;20028;-61
2022/09/16 02:57:24;;;;;;;8.13;2.03;;;13.50;99.90;;;;;;5085632;28;20028;-61
2022/09/16 02:59:50;;;;;;;12.50;2.22;;;13.50;99.90;;;;;;5084310;28;20039;-61
2022/09/16 03:02:15;;;;;;;12.68;2.47;;;13.40;99.90;;;;;;5081460;28;20044;-61
2022/09/16 03:04:41;;;;;;;6.07;1.95;;;13.40;99.90;;;;;;5079746;28;20094;-60
2022/09/16 03:07:09;;;;;;;16.70;2.28;;;13.40;99.90;;;;;;5084434;28;20046;-61
2022/09/16 03:09:40;;;;;;;13.43;2.10;;;13.50;99.90;;;;;;5078925;28;20016;-61
2022/09/16 03:12:06;;;;;;;7.78;2.08;;;13.40;99.90;;;;;;5084547;28;20020;-60
2022/09/16 03:15:08;;;;;;;18.95;2.42;;;13.40;99.90;;;;;;5086961;28;20027;-60
2022/09/16 03:17:58;;;;;;;12.73;2.00;;;13.20;99.90;;;;;;5085617;28;20847;-60
2022/09/16 03:20:32;;;;;;;7.05;2.92;;;13.10;99.90;;;;;;5083676;28;20028;-60
2022/09/16 03:23:16;;;;;;;;;;;13.20;99.90;;;;;;5086297;28;20032;-59
2022/09/16 03:26:12;;;;;;;11.23;2.40;;;13.20;99.90;;;;;;5088104;28;20000;-61
2022/09/16 03:28:46;;;;;;;10.70;2.13;;;13.20;99.90;;;;;;5085680;28;20034;-60
2022/09/16 03:31:46;;;;;;;6.43;2.83;;;13.20;99.90;;;;;;5088554;28;20028;-61
2022/09/16 03:34:28;;;;;;;10.27;2.25;;;13.20;99.90;;;;;;5069754;22;20052;-65
2022/09/16 03:37:00;;;;;;;8.50;2.58;;;13.20;99.90;;;;;;5074626;28;20032;-67
2022/09/16 03:39:25;;;;;;;9.50;1.98;;;13.10;99.90;;;;;;5063903;28;20060;-67
2022/09/16 03:41:51;;;;;;;11.82;2.35;;;13.20;99.90;;;;;;5077898;28;20087;-67
2022/09/16 03:44:16;;;;;;;6.40;2.28;;;13.10;99.90;;;;;;5069783;28;20052;-65
2022/09/16 03:46:42;;;;;;;17.20;2.95;;;13.10;99.90;;;;;;5065076;28;20037;-67
2022/09/16 03:49:08;;;;;;;7.55;2.20;;;13.10;99.90;;;;;;5075097;28;20032;-67
2022/09/16 03:51:33;;;;;;;8.57;1.98;;;12.90;99.90;;;;;;5055629;28;20021;-66
2022/09/16 03:53:59;;;;;;;9.57;2.30;;;12.90;99.90;;;;;;5066895;28;20040;-67
2022/09/16 03:56:24;;;;;;;9.13;2.13;;;12.90;99.90;;;;;;5069962;28;20029;-67
2022/09/16 03:58:50;;;;;;;12.15;2.75;;;13.00;99.90;;;;;;5061728;28;20029;-64
2022/09/16 04:01:16;;;;;;;9.02;2.50;;;13.00;99.90;;;;;;5064717;28;20028;-65
2022/09/16 04:03:42;;;;;;;9.77;2.60;;;13.00;99.90;;;;;;5072700;28;20433;-67
2022/09/16 04:06:08;;;;;;;11.70;3.22;;;13.00;99.90;;;;;;5060982;28;20040;-67
2022/09/16 04:08:34;;;;;;;7.70;3.00;;;13.10;99.90;;;;;;5063349;28;20016;-67
2022/09/16 04:11:04;;;;;;;18.45;2.22;;;13.10;99.90;;;;;;5053499;28;20116;-67
2022/09/16 04:13:32;;;;;;;14.93;2.58;;;13.10;99.90;;;;;;5058969;28;20104;-67
2022/09/16 04:15:58;;;;;;;11.52;2.45;;;13.10;99.90;;;;;;5050757;28;20487;-66
2022/09/16 04:18:23;;;;;;;15.23;3.63;;;13.10;99.90;;;;;;5062659;28;20530;-67
2022/09/16 04:20:49;;;;;;;12.65;3.72;;;13.00;99.90;;;;;;5071535;28;20160;-67
2022/09/16 04:23:15;;;;;;;8.88;2.17;;;12.90;99.90;;;;;;5066810;28;20039;-66
2022/09/16 04:25:41;;;;;;;10.95;2.80;;;13.00;99.90;;;;;;5056386;28;20013;-64
2022/09/16 04:28:07;;;;;;;12.95;2.47;;;13.00;99.90;;;;;;5061074;28;20391;-67
2022/09/16 04:30:33;;;;;;;7.60;2.38;;;13.00;99.90;;;;;;5059860;28;20096;-66
2022/09/16 04:32:58;;;;;;;8.02;2.90;;;12.90;99.90;;;;;;5059763;28;20821;-64
2022/09/16 04:35:24;;;;;;;13.05;2.30;;;12.80;99.90;;;;;;5057546;28;20521;-68
2022/09/16 04:37:51;;;;;;;18.40;2.80;;;12.90;99.90;;;;;;5064011;28;20036;-66
2022/09/16 04:40:18;;;;;;;10.63;2.03;;;12.70;99.90;;;;;;5053158;28;20763;-66
2022/09/16 04:42:52;;;;;;;12.35;2.35;;;12.60;99.90;;;;;;5056169;28;20032;-66
2022/09/16 04:45:18;;;;;;;19.23;2.20;;;12.60;99.90;;;;;;5053586;28;20101;-67
2022/09/16 04:47:43;;;;;;;10.00;2.63;;;12.50;99.90;;;;;;5057667;28;20625;-64
2022/09/16 04:50:09;;;;;;;13.80;2.50;;;12.60;99.90;;;;;;5064253;28;20483;-67
2022/09/16 04:52:35;;;;;;;19.95;2.75;;;12.50;99.90;;;;;;5062200;28;20108;-67
2022/09/16 04:55:01;;;;;;;13.85;2.88;;;12.50;99.90;;;;;;5062614;28;20036;-67
2022/09/16 04:57:30;;;;;;;16.50;3.42;;;12.50;99.90;;;;;;5067752;28;20394;-67
2022/09/16 04:59:55;;;;;;;11.82;2.80;;;12.60;99.90;;;;;;5059122;28;20111;-66
2022/09/16 05:02:21;;;;;;;13.65;2.55;;;12.50;99.90;;;;;;5063674;28;20151;-67
2022/09/16 05:04:47;;;;;;;7.35;2.60;;;12.60;99.90;;;;;;5051888;28;21026;-67
2022/09/16 05:07:12;;;;;;;10.60;2.38;;;12.50;99.90;;;;;;5062288;28;20462;-66
2022/09/16 05:09:38;;;;;;;21.60;3.33;;;12.60;99.90;;;;;;5061249;28;20028;-67
2022/09/16 05:12:05;;;;;;;16.75;2.08;;;12.60;99.90;;;;;;5053166;28;20044;-67
2022/09/16 05:14:31;;;;;;;29.92;2.35;;;12.60;99.90;;;;;;5061728;28;20352;-65
2022/09/16 05:16:56;;;;;;;8.68;1.77;;;12.60;99.90;;;;;;5057221;28;20033;-65
2022/09/16 05:19:22;;;;;;;8.20;2.47;;;12.60;99.90;;;;;;5068096;28;20542;-65
2022/09/16 05:21:47;;;;;;;7.40;1.73;;;12.70;99.90;;;;;;5055893;28;20036;-66
2022/09/16 05:24:13;;;;;;;6.85;1.30;;;12.70;99.90;;;;;;5055026;28;20486;-65
2022/09/16 05:26:41;;;;;;;13.93;1.85;;;12.70;99.90;;;;;;5054254;28;20836;-65
2022/09/16 05:29:12;;;;;;;11.68;2.05;;;12.80;99.90;;;;;;5066375;28;20056;-65
2022/09/16 05:31:40;;;;;;;14.27;2.67;;;12.70;99.90;;;;;;5060091;28;20402;-65
2022/09/16 05:34:12;;;;;;;6.65;1.55;;;12.80;99.90;;;;;;5060599;28;20024;-65
2022/09/16 05:36:38;;;;;;;9.50;2.15;;;12.80;99.90;;;;;;5059547;28;20032;-65
2022/09/16 05:39:04;;;;;;;12.80;1.70;;;12.90;99.90;;;;;;5057106;28;20036;-66
2022/09/16 05:41:30;;;;;;;11.15;1.50;;;12.90;99.90;;;;;;5069586;28;20021;-65
2022/09/16 05:43:59;;;;;;;11.52;2.10;;;12.90;99.90;;;;;;5060734;28;20028;-67
2022/09/16 05:46:26;;;;;;;8.77;1.58;;;12.90;99.90;;;;;;5054149;28;20029;-65
2022/09/16 05:48:52;;;;;;;16.63;2.55;;;13.00;99.90;;;;;;5054339;28;20394;-66
2022/09/16 05:51:20;;;;;;;40.33;4.50;;;13.00;99.90;;;;;;5065266;28;20028;-66
2022/09/16 05:53:46;;;;;;;13.32;2.20;;;13.00;99.90;;;;;;5062586;28;20035;-65
2022/09/16 05:56:17;;;;;;;9.82;1.50;;;13.10;99.90;;;;;;5067147;28;20037;-66
2022/09/16 05:58:43;;;;;;;16.77;2.00;;;13.10;99.90;;;;;;5060318;28;20056;-65
2022/09/16 06:01:12;;;;;;;16.38;1.42;;;13.10;99.90;;;;;;5053633;28;20029;-66
2022/09/16 06:03:39;;;;;;;7.35;1.73;;;13.10;99.90;;;;;;5055836;28;20029;-65
2022/09/16 06:06:11;;;;;;;4.43;1.30;;;13.10;99.90;;;;;;5051326;28;20457;-66
2022/09/16 06:08:37;;;;;;;3.38;1.30;;;13.20;99.90;;;;;;5050540;28;20092;-66
2022/09/16 06:11:05;;;;;;;3.05;1.60;;;13.20;99.90;;;;;;5054414;28;20108;-65
2022/09/16 06:13:31;;;;;;;9.35;1.20;;;13.20;99.90;;;;;;5049482;28;20055;-66
2022/09/16 06:15:57;;;;;;;12.40;1.40;;;13.20;99.90;;;;;;5057475;28;20085;-66
2022/09/16 06:18:24;;;;;;;7.30;1.50;;;13.20;99.90;;;;;;5064337;28;20090;-65
2022/09/16 06:20:50;;;;;;;14.85;1.30;;;13.20;99.90;;;;;;5068222;28;20055;-67
2022/09/16 06:23:16;;;;;;;14.38;1.33;;;13.30;99.90;;;;;;5049886;28;20068;-65
2022/09/16 06:25:42;;;;;;;13.30;1.08;;;13.30;99.90;;;;;;5053316;28;20137;-66
2022/09/16 06:28:10;;;;;;;6.43;1.20;;;13.30;99.90;;;;;;5051277;28;20522;-66
2022/09/16 06:30:37;;;;;;;15.45;1.70;;;13.30;99.90;;;;;;5059734;28;20066;-66
2022/09/16 06:33:03;;;;;;;12.63;1.80;;;13.40;99.90;;;;;;5056577;28;20025;-67
2022/09/16 06:35:29;;;;;;;8.52;1.15;;;13.40;99.90;;;;;;5054498;28;20060;-66
2022/09/16 06:37:55;;;;;;;6.38;1.30;;;13.40;99.90;;;;;;5064773;28;20096;-67
2022/09/16 06:40:21;;;;;;;5.00;1.02;;;13.40;99.90;;;;;;5050855;28;20029;-66
2022/09/16 06:42:46;;;;;;;7.80;1.20;;;13.50;99.90;;;;;;5051674;28;20043;-66
2022/09/16 06:45:12;;;;;;;10.35;1.40;;;13.60;99.90;;;;;;5057638;28;20020;-66
2022/09/16 06:47:38;;;;;;;10.90;1.58;;;13.60;99.90;;;;;;5051729;28;20025;-65
2022/09/16 06:50:05;;;;;;;3.03;1.20;;;13.70;99.90;;;;;;5060281;28;20033;-65
2022/09/16 06:52:30;;;;;;;4.13;1.02;;;13.70;99.90;;;;;;5053648;28;20025;-66
2022/09/16 06:54:56;;;;;;;3.97;0.98;;;13.70;99.90;;;;;;5060617;28;20017;-66
2022/09/16 06:57:22;;;;;;;6.75;1.30;;;13.80;99.90;;;;;;5060142;28;20372;-65
2022/09/16 06:59:51;;;;;;;12.70;1.30;;;13.80;99.90;;;;;;5058923;28;20032;-64
2022/09/16 07:02:18;;;;;;;8.38;1.30;;;13.90;99.90;;;;;;5064659;28;20064;-66
2022/09/16 07:04:44;;;;;;;11.05;1.00;;;13.80;99.90;;;;;;5059683;28;20756;-65
2022/09/16 07:07:11;;;;;;;6.10;0.98;;;13.90;99.90;;;;;;5069813;28;20086;-65
2022/09/16 07:09:37;;;;;;;7.00;1.10;;;13.80;99.90;;;;;;5061223;28;20406;-65
2022/09/16 07:12:03;;;;;;;5.43;1.00;;;13.90;99.90;;;;;;5055756;28;20027;-66
2022/09/16 07:14:31;;;;;;;4.60;1.20;;;13.90;99.90;;;;;;5055898;28;20029;-65
2022/09/16 07:16:57;;;;;;;6.97;1.48;;;13.90;99.90;;;;;;5072466;28;20024;-65
2022/09/16 07:19:24;;;;;;;6.55;1.33;;;13.90;99.90;;;;;;5070282;28;20032;-65
2022/09/16 07:21:49;;;;;;;7.75;1.13;;;13.90;99.90;;;;;;5057736;28;20490;-63
2022/09/16 07:24:15;;;;;;;5.60;1.48;;;13.80;99.90;;;;;;5057574;28;20044;-65
2022/09/16 07:26:42;;;;;;;4.43;1.27;;;13.90;99.90;;;;;;5061012;28;20020;-66
2022/09/16 07:29:11;;;;;;;8.80;1.00;;;13.90;99.90;;;;;;5052981;28;20021;-67
2022/09/16 07:31:37;;;;;;;11.20;1.70;;;14.00;99.90;;;;;;5059327;28;20032;-65
2022/09/16 07:34:05;;;;;;;9.00;1.15;;;14.00;99.90;;;;;;5070066;28;20053;-66
2022/09/16 07:36:42;;;;;;;8.40;1.45;;;14.00;99.90;;;;;;5075658;28;20516;-66
2022/09/16 07:39:09;;;;;;;6.53;1.00;;;14.00;99.90;;;;;;5060194;28;20032;-66
2022/09/16 07:41:38;;;;;;;8.00;1.15;;;14.00;99.90;;;;;;5061376;28;20020;-67
2022/09/16 07:44:04;;;;;;;4.43;1.00;;;14.00;99.90;;;;;;5063483;28;20696;-66
2022/09/16 07:46:32;;;;;;;5.63;1.00;;;14.00;99.90;;;;;;5068074;28;20389;-67
2022/09/16 07:49:00;;;;;;;9.77;1.08;;;14.00;99.90;;;;;;5052058;28;20032;-64
2022/09/16 07:51:28;;;;;;;6.72;0.88;;;14.00;99.90;;;;;;5074288;28;20020;-66
2022/09/16 07:53:55;;;;;;;4.82;0.93;;;14.10;99.90;;;;;;5051734;28;20013;-65
2022/09/16 07:56:24;;;;;;;5.22;1.20;;;14.10;99.90;;;;;;5056727;28;20021;-66
2022/09/16 07:58:50;;;;;;;8.93;1.52;;;14.10;99.90;;;;;;5058164;28;20025;-64
2022/09/16 08:01:16;;;;;;;5.72;1.00;;;14.30;99.90;;;;;;5068045;28;20051;-66
2022/09/16 08:03:43;;;;;;;10.57;0.90;;;14.30;99.90;;;;;;5066440;28;20024;-65
2022/09/16 08:06:14;;;;;;;3.88;0.85;;;14.40;99.90;;;;;;5067239;28;20052;-66
2022/09/16 08:08:40;;;;;;;8.57;0.90;;;14.60;99.90;;;;;;5059674;28;20459;-66
2022/09/16 08:11:07;;;;;;;4.88;3.00;;;14.60;99.90;;;;;;5068368;28;20024;-65
2022/09/16 08:13:34;;;;;;;6.50;0.85;;;14.70;99.90;;;;;;5058410;28;20017;-66
2022/09/16 08:16:02;;;;;;;5.68;1.52;;;14.70;99.90;;;;;;5053011;28;20036;-67
2022/09/16 08:18:28;;;;;;;4.30;1.20;;;14.60;99.90;;;;;;5058896;28;20020;-67
2022/09/16 08:20:53;;;;;;;1.95;0.75;;;14.60;99.90;;;;;;5067590;28;20025;-67
2022/09/16 08:23:19;;;;;;;7.38;0.93;;;14.60;99.90;;;;;;5063048;28;20020;-66
2022/09/16 08:25:46;;;;;;;3.58;0.60;;;14.60;99.90;;;;;;5071101;28;20106;-65
2022/09/16 08:28:16;;;;;;;3.00;0.82;;;14.60;99.90;;;;;;5056598;28;20390;-65
2022/09/16 08:30:42;;;;;;;6.35;1.20;;;14.70;99.90;;;;;;5073062;28;20100;-64
2022/09/16 08:33:09;;;;;;;5.65;0.75;;;14.80;99.90;;;;;;5059964;28;20147;-66
2022/09/16 08:35:35;;;;;;;2.33;0.70;;;14.70;99.90;;;;;;5070042;28;20051;-66
2022/09/16 08:38:01;;;;;;;1.33;0.60;;;14.70;99.90;;;;;;5053249;28;20035;-67
2022/09/16 08:40:31;;;;;;;7.63;0.80;;;14.70;99.90;;;;;;5071000;28;20134;-66
2022/09/16 08:43:05;;;;;;;5.55;0.73;;;14.70;99.90;;;;;;5051559;28;20478;-66
2022/09/16 08:45:41;;;;;;;;;;;14.80;99.90;;;;;;5066964;28;20120;-66
2022/09/16 08:48:27;;;;;;;2.47;0.50;;;14.90;99.90;;;;;;5058405;28;20404;-63
2022/09/16 08:50:53;;;;;;;5.65;0.80;;;14.90;99.90;;;;;;5065603;28;20020;-65
2022/09/16 08:53:48;;;;;;;6.20;1.27;;;14.90;99.90;;;;;;5064056;28;20041;-66
2022/09/16 08:56:19;;;;;;;8.13;0.90;;;15.00;99.90;;;;;;5059821;28;20056;-66
2022/09/16 08:58:50;;;;;;;2.13;0.82;;;15.10;99.90;;;;;;5052897;28;20036;-67
2022/09/16 09:01:40;;;;;;;14.07;1.65;;;15.20;99.90;;;;;;5059853;28;20021;-67
2022/09/16 09:04:06;;;;;;;6.10;1.05;;;15.20;99.90;;;;;;5069293;28;20021;-66
2022/09/16 09:06:43;;;;;;;6.68;0.80;;;15.20;99.90;;;;;;5067502;28;20035;-66
2022/09/16 09:09:42;;;;;;;4.35;0.60;;;15.20;99.90;;;;;;5056363;28;20028;-67
2022/09/16 09:12:33;;;;;;;4.68;0.82;;;15.10;99.90;;;;;;5050821;28;20032;-66
2022/09/16 09:15:23;;;;;;;2.53;0.90;;;15.00;99.90;;;;;;5050256;28;20032;-64
2022/09/16 09:18:16;;;;;;;1.90;0.90;;;15.10;99.90;;;;;;5049864;28;20171;-63
2022/09/16 09:20:47;;;;;;;1.83;0.60;;;15.30;99.90;;;;;;5047899;28;20479;-65
2022/09/16 09:23:26;;;;;;;4.15;0.57;;;15.50;99.90;;;;;;5051604;28;20052;-66
2022/09/16 09:26:04;;;;;;;3.72;0.88;;;15.60;99.90;;;;;;5049959;28;20482;-64
2022/09/16 09:28:50;;;;;;;2.95;0.80;;;15.70;99.90;;;;;;5049504;28;20044;-64
2022/09/16 09:31:39;;;;;;;4.80;0.80;;;15.90;99.90;;;;;;5056420;28;20027;-63
2022/09/16 09:34:30;;;;;;;7.47;0.63;;;16.20;99.90;;;;;;5054847;28;20028;-63
2022/09/16 09:37:17;;;;;;;3.83;0.95;;;16.30;99.90;;;;;;5066269;28;20479;-64
2022/09/16 09:40:08;;;;;;;3.67;0.70;;;16.40;99.90;;;;;;5086287;22;20103;-59
2022/09/16 09:42:42;;;;;;;5.45;0.90;;;16.60;99.90;;;;;;5057082;28;20032;-59
2022/09/16 09:45:17;;;;;;;1.83;1.00;;;16.80;99.90;;;;;;5065386;28;20119;-57
2022/09/16 09:47:51;;;;;;;5.05;1.13;;;16.60;99.90;;;;;;5062283;28;20697;-57
2022/09/16 09:50:23;;;;;;;3.38;1.02;;;16.50;99.90;;;;;;5061930;28;20084;-58
2022/09/16 09:53:12;;;;;;;1.65;0.65;;;16.30;99.90;;;;;;5065948;28;20360;-60
2022/09/16 09:55:39;;;;;;;8.52;0.95;;;16.30;99.90;;;;;;5066714;28;20031;-60
2022/09/16 09:58:17;;;;;;;5.05;0.60;;;16.30;99.90;;;;;;5059700;28;20032;-56
2022/09/16 10:00:43;;;;;;;4.53;0.63;;;16.20;99.90;;;;;;5063514;28;20541;-58
2022/09/16 10:03:15;;;;;;;12.90;1.30;;;16.10;99.90;;;;;;5063947;28;20078;-59
2022/09/16 10:05:41;;;;;;;6.07;0.73;;;16.00;99.90;;;;;;5063800;28;20560;-57
2022/09/16 10:08:27;;;;;;;7.18;0.50;;;16.00;99.90;;;;;;5065450;28;20074;-58
2022/09/16 10:10:55;;;;;;;1.13;0.50;;;16.10;99.90;;;;;;5063495;28;20021;-58
2022/09/16 10:13:23;;;;;;;5.97;0.95;;;16.40;99.90;;;;;;5065185;28;20060;-58
2022/09/16 10:15:52;;;;;;;2.28;0.47;;;16.60;99.90;;;;;;5063536;28;20035;-59
2022/09/16 10:18:24;;;;;;;4.70;0.52;;;16.70;99.90;;;;;;5069253;28;20036;-56
2022/09/16 10:21:06;;;;;;;3.70;0.35;;;16.80;99.90;;;;;;5069111;28;20032;-56
2022/09/16 10:23:33;;;;;;;3.17;0.60;;;17.10;99.90;;;;;;5068965;28;20029;-58
2022/09/16 10:26:26;;;;;;;3.85;0.60;;;16.80;99.90;;;;;;5067240;28;20082;-57
2022/09/16 10:29:00;;;;;;;4.22;0.80;;;16.60;99.90;;;;;;5061822;28;20020;-61
2022/09/16 10:31:35;;;;;;;3.63;0.73;;;16.80;99.90;;;;;;5068261;28;20105;-60
2022/09/16 10:34:03;;;;;;;2.03;0.43;;;16.70;99.90;;;;;;5066316;28;20062;-60
2022/09/16 10:36:32;;;;;;;2.22;0.57;;;16.80;99.90;;;;;;5062622;28;20050;-59
2022/09/16 10:39:00;;;;;;;2.03;0.30;;;16.90;99.90;;;;;;5063559;28;20107;-55
2022/09/16 10:41:31;;;;;;;2.67;0.43;;;16.80;99.90;;;;;;5058930;28;20043;-60
2022/09/16 10:44:17;;;;;;;4.32;0.50;;;16.70;99.90;;;;;;5066280;28;20043;-58
2022/09/16 10:46:53;;;;;;;5.22;1.08;;;16.90;99.90;;;;;;5063899;28;20039;-55
2022/09/16 10:49:24;;;;;;;3.13;0.50;;;17.20;99.90;;;;;;5065959;28;20048;-60
2022/09/16 10:51:50;;;;;;;2.33;0.95;;;17.40;99.90;;;;;;5065172;28;20464;-57
2022/09/16 10:54:27;;;;;;;3.30;0.43;;;17.50;99.90;;;;;;5067085;28;20748;-61
2022/09/16 10:56:53;;;;;;;4.32;0.63;;;17.50;99.90;;;;;;5067163;28;20036;-58
2022/09/16 10:59:19;;;;;;;4.15;0.60;;;17.90;99.90;;;;;;5061601;28;20048;-59
2022/09/16 11:01:44;;;;;;;2.75;0.73;;;17.70;99.90;;;;;;5066568;28;20478;-58
2022/09/16 11:04:31;;;;;;;8.57;0.80;;;17.80;99.90;;;;;;5066842;28;20024;-60
2022/09/16 11:07:06;;;;;;;5.82;0.45;;;18.00;99.90;;;;;;5057985;28;20025;-58
2022/09/16 11:09:41;;;;;;;2.08;0.50;;;17.90;99.90;;;;;;5065888;28;20112;-58
2022/09/16 11:12:26;;;;;;;3.05;0.82;;;17.70;99.90;;;;;;5061046;28;20082;-61
2022/09/16 11:15:17;;;;;;;2.55;0.40;;;17.60;99.90;;;;;;5068215;28;20058;-59
2022/09/16 11:18:13;;;;;;;4.05;0.60;;;17.50;99.90;;;;;;5061659;28;20032;-56
2022/09/16 11:20:57;;;;;;;3.05;0.40;;;17.30;99.90;;;;;;5063358;28;20024;-56
2022/09/16 11:23:45;;;;;;;0.68;0.30;;;17.10;99.90;;;;;;5066007;28;20032;-58
2022/09/16 11:26:16;;;;;;;6.03;0.75;;;17.40;99.90;;;;;;5066029;28;20021;-57
2022/09/16 11:28:46;;;;;;;3.33;0.50;;;17.70;99.90;;;;;;5064058;28;20025;-58
2022/09/16 11:31:47;;;;;;;3.40;0.80;;;17.50;99.90;;;;;;5066896;28;20024;-55
2022/09/16 11:34:31;;;;;;;1.38;0.43;;;17.50;99.90;;;;;;5035301;28;20115;-57
2022/09/16 11:37:21;;;;;;;5.70;0.50;;;17.70;99.90;;;;;;5066000;28;20040;-55
2022/09/16 11:40:19;;;;;;;1.23;0.52;;;17.70;99.90;;;;;;5063369;28;20020;-56
2022/09/16 11:43:20;;;;;;;3.33;0.50;;;18.00;99.90;;;;;;5069169;28;20120;-55
2022/09/16 11:46:12;;;;;;;1.52;0.50;;;18.30;99.90;;;;;;5064110;28;20077;-58
2022/09/16 11:49:12;;;;;;;1.98;0.30;;;18.40;99.90;;;;;;5067238;28;20025;-58
2022/09/16 11:51:56;;;;;;;2.08;0.43;;;18.80;99.90;;;;;;5050036;28;20040;-57
2022/09/16 11:54:33;;;;;;;1.20;0.40;;;19.20;99.90;;;;;;5066972;28;20526;-56
2022/09/16 11:57:06;;;;;;;3.17;0.68;;;18.80;99.90;;;;;;5064253;28;20035;-56
2022/09/16 11:59:36;;;;;;;2.55;0.55;;;18.40;99.90;;;;;;5067781;28;20029;-58
2022/09/16 12:02:09;;;;;;;4.90;0.60;;;18.20;99.90;;;;;;5067070;28;20043;-57
2022/09/16 12:04:39;;;;;;;1.20;0.40;;;17.80;99.90;;;;;;5064971;28;20393;-59
2022/09/16 12:07:27;;;;;;;3.42;0.55;;;17.40;99.90;;;;;;5067025;28;20028;-58
2022/09/16 12:10:15;;;;;;;6.28;0.50;;;17.30;99.90;;;;;;5068696;28;20039;-59
2022/09/16 12:12:47;;;;;;;3.22;0.47;;;17.10;99.90;;;;;;5069280;28;20028;-58
2022/09/16 12:15:25;;;;;;;0.90;0.40;;;16.90;99.90;;;;;;5067473;28;20017;-59
2022/09/16 12:18:13;;;;;;;1.17;0.30;;;16.90;99.90;;;;;;5060595;28;20416;-59
2022/09/16 12:20:49;;;;;;;1.55;0.50;;;16.80;99.90;;;;;;5064951;28;20025;-55
2022/09/16 12:23:23;;;;;;;4.55;0.63;;;17.20;99.90;;;;;;5066748;28;20033;-57
2022/09/16 12:26:00;;;;;;;2.17;0.45;;;17.60;99.90;;;;;;5064803;28;20045;-57
2022/09/16 12:28:33;;;;;;;2.78;0.75;;;18.10;99.90;;;;;;5067837;28;20032;-57
2022/09/16 12:31:25;;;;;;;2.13;0.63;;;17.90;99.90;;;;;;5065851;28;20024;-57
2022/09/16 12:34:00;;;;;;;3.33;0.60;;;17.30;99.90;;;;;;5019737;28;20037;-56
2022/09/16 12:36:30;;;;;;;4.05;0.70;;;16.70;99.90;;;;;;5064455;28;20024;-56
2022/09/16 12:38:59;;;;;;;2.38;0.40;;;16.20;99.90;;;;;;5066962;28;20028;-55
2022/09/16 12:41:31;;;;;;;6.82;0.55;;;15.70;99.90;;;;;;5067787;28;20510;-58
2022/09/16 12:44:25;;;;;;;8.18;0.60;;;15.10;99.90;;;;;;5066714;28;20448;-56
2022/09/16 12:47:09;;;;;;;2.60;0.52;;;14.40;99.90;;;;;;5064770;28;20116;-56
2022/09/16 12:50:20;;;;;;;1.38;0.43;;;13.70;99.90;;;;;;5056753;28;20795;-55
2022/09/16 12:52:56;;;;;;;4.60;0.52;;;13.20;99.90;;;;;;5036774;28;20040;-55
2022/09/16 12:55:47;;;;;;;1.30;0.50;;;13.10;99.90;;;;;;5029982;28;20029;-57
2022/09/16 12:58:25;;;;;;;6.60;0.65;;;13.00;99.90;;;;;;5057642;28;20452;-56
2022/09/16 13:01:11;;;;;;;7.82;1.00;;;13.00;99.90;;;;;;5063385;28;20059;-57
2022/09/16 13:03:41;;;;;;;1.85;0.70;;;13.00;99.90;;;;;;5061749;28;20020;-54
2022/09/16 13:06:26;;;;;;;5.28;0.80;;;13.10;99.90;;;;;;5060068;28;20063;-59
2022/09/16 13:08:52;;;;;;;;;;;13.20;99.90;;;;;;5067517;28;20090;-56
2022/09/16 13:11:28;;;;;;;3.13;1.00;;;13.30;99.90;;;;;;5067093;28;20007;-55
2022/09/16 13:13:57;;;;;;;1.88;0.80;;;13.30;99.90;;;;;;5066137;28;20029;-57
2022/09/16 13:16:32;;;;;;;4.47;0.90;;;13.30;99.90;;;;;;5066238;28;20036;-56